HK-0001 weather

CLOSED Sha Tin Airfield
Hong Kong, Hong Kong

Public forecast

Using degrees Celsius for public forecast. Weather courtesy of forecast.io.

Closest aviation weather report (METAR) to Sha Tin Airfield

Closest report is Hong Kong International Airport, 15.9 nm (29.4 km) WSW. Retrieved 2020/03/31 06:00 UTC (14 minutes ago):

VHHH 310600Z 32009KT 2300 RA BR FEW005 SCT015 19/19 Q1012 NOSIG

Closest aviation forecast (TAF) to Sha Tin Airfield

Closest forecast is Hong Kong International Airport, 15.9 nm (29.4 km) WSW. Retrieved 2020/03/31 06:25 UTC (0 seconds ago):

TAF VHHH 310500Z 3106/0112 VRB05KT 7000 FEW005 SCT015 TX20/3106Z TX21/0106Z TN17/3123Z TEMPO 3106/3112 32010KT 2000 BR -RA TEMPO 3112/3121 01010KT 3500 SHRA TEMPO 3121/0109 34010KT 3500 BR -RA TEMPO 0109/0112 04010KT